»·PEaware :: N734UG L88-KSBP

N734UG :: L88-KSBP

FLIGHT INFORMATION

Flight Status: Arrived
Operator: Privately registered:
United States
More flights under this callsign
Pilot: Dakota F. (17727)
Aircraft: CESSNA 172 SKYHAWK
(C172)
More flights by this aircraft type
Origin: L88 New Cuyama
United States
Destination: KSBP San Luis Co Regl
United States
More flights between these airports :: More routes between these airports
Route: DCT
File this flight plan on PilotEdge
Remarks:
Altitude:
(Current/Filed)
7,500ft
Speed:
(Current/Filed)
130kts
Departed: 29-Dec-17 06:47 PM
Arrived: 29-Dec-17 08:05 PM
Distance/Time
Traveled:
1nm/1:18
Distance/Time
To Go:
Arrived

Flight Plot

Page will automatically refresh every two minutes.


Map Options




Map Legend


Flown Route
Filed Route
Departure Airport
Arrival Airport
Navaid (VOR, NDB)
Fix

Horizontal Profiles

Position Reports

Time Latitude Longitude Heading Altitude Ground
Speed
29-Dec-17 18:43 34.939886 -119.693605 22 2206ft 0kts
29-Dec-17 18:44 34.939886 -119.693605 22 2206ft 0kts
29-Dec-17 18:45 34.939886 -119.693605 22 2206ft 0kts
29-Dec-17 18:46 34.939886 -119.693605 22 2206ft 0kts
29-Dec-17 18:47 34.939886 -119.693605 22 2206ft 0kts
29-Dec-17 18:48 34.939925 -119.693576 46 2206ft 0kts
29-Dec-17 18:49 34.939158 -119.692779 111 2206ft 12kts
29-Dec-17 18:50 34.937050 -119.687469 111 2206ft 8kts
29-Dec-17 18:51 34.935489 -119.683458 117 2206ft 15kts
29-Dec-17 18:52 34.935348 -119.682768 267 2206ft 3kts
29-Dec-17 18:53 34.937726 -119.688675 299 2366ft 55kts
29-Dec-17 18:54 34.945934 -119.711003 290 3025ft 86kts
29-Dec-17 18:55 34.953751 -119.737527 287 3949ft 81kts
29-Dec-17 18:56 34.963046 -119.763318 293 4697ft 86kts
29-Dec-17 18:57 34.970773 -119.790111 283 5420ft 81kts
29-Dec-17 18:58 34.978568 -119.817187 292 5954ft 87kts
29-Dec-17 18:59 34.988783 -119.843683 288 6455ft 85kts
29-Dec-17 19:00 34.998483 -119.870581 289 6932ft 86kts
29-Dec-17 19:01 35.005936 -119.898333 286 7384ft 86kts
29-Dec-17 19:02 35.014995 -119.928576 287 7517ft 103kts
29-Dec-17 19:03 35.025388 -119.962941 289 7514ft 112kts
29-Dec-17 19:04 35.035573 -119.999050 280 7535ft 117kts
29-Dec-17 19:05 35.044895 -120.036194 284 7572ft 117kts
29-Dec-17 19:06 35.054859 -120.073876 292 7511ft 118kts
29-Dec-17 19:07 35.066612 -120.110911 284 7498ft 117kts
29-Dec-17 19:08 35.077769 -120.148999 291 7434ft 111kts
29-Dec-17 19:09 35.088652 -120.182327 288 7391ft 102kts
29-Dec-17 19:10 35.096704 -120.208915 286 7457ft 94kts
29-Dec-17 19:11 35.105932 -120.238377 286 7533ft 99kts
29-Dec-17 19:12 35.118211 -120.279112 287 7576ft 117kts
29-Dec-17 19:13 35.127606 -120.311554 287 7504ft 119kts
29-Dec-17 19:14 35.139426 -120.348657 292 7498ft 119kts
29-Dec-17 19:15 35.151153 -120.384908 286 7523ft 115kts
29-Dec-17 19:16 35.163830 -120.423384 290 7359ft 126kts
29-Dec-17 19:17 35.174731 -120.458448 286 6835ft 91kts
29-Dec-17 19:18 35.183771 -120.480831 294 6329ft 64kts
29-Dec-17 19:19 35.193182 -120.481697 101 5839ft 72kts
29-Dec-17 19:20 35.186508 -120.459546 119 5785ft 72kts
29-Dec-17 19:21 35.176222 -120.436531 110 5745ft 77kts
29-Dec-17 19:22 35.168118 -120.409896 115 5575ft 91kts
29-Dec-17 19:23 35.165315 -120.401906 114 5663ft 79kts
29-Dec-17 19:24 35.165315 -120.401906 114 5663ft 79kts
29-Dec-17 19:25 35.165315 -120.401906 114 5663ft 79kts
29-Dec-17 19:26 35.165315 -120.401906 114 5663ft 79kts
29-Dec-17 19:27 35.165315 -120.401906 114 5663ft 79kts
29-Dec-17 19:28 35.165315 -120.401906 114 5663ft 79kts
29-Dec-17 19:29 35.165315 -120.401906 114 5663ft 79kts
29-Dec-17 19:30 35.165315 -120.401906 114 5663ft 79kts
29-Dec-17 19:36 35.161976 -120.389913 107 5553ft 118kts
29-Dec-17 19:46 35.157279 -120.375763 129 6091ft 91kts
29-Dec-17 20:11 35.238586 -120.638693 359 218ft 0kts
29-Dec-17 20:12 35.238586 -120.638693 359 218ft 0kts
29-Dec-17 20:13 35.238586 -120.638693 359 218ft 0kts
29-Dec-17 20:14 35.238586 -120.638693 359 215ft 0kts
29-Dec-17 20:15 34.939970 -119.693830 22 2206ft 0kts
29-Dec-17 20:16 34.939970 -119.693830 22 2206ft 0kts
29-Dec-17 20:17 34.939971 -119.693829 22 2206ft 0kts
29-Dec-17 20:18 34.939972 -119.693829 22 2206ft 0kts
29-Dec-17 20:19 34.939973 -119.693828 22 2206ft 0kts
29-Dec-17 20:20 34.939974 -119.693828 22 2206ft 0kts
29-Dec-17 20:21 34.939951 -119.693637 155 2206ft 3kts
29-Dec-17 20:22 34.938912 -119.692067 112 2206ft 17kts
29-Dec-17 20:23 34.936684 -119.686236 115 2206ft 14kts
29-Dec-17 20:24 34.936412 -119.685639 306 2206ft 2kts
29-Dec-17 20:25 34.941621 -119.697813 294 2543ft 74kts

Navigation Log

Ident Type
1. L88 Airport
2. KSBP Airport